Time;durP1;ratioP1;P1;durP2;ratioP2;P2;SDS_P1;SDS_P2;PMS_P1;PMS_P2;Temp;Humidity;BMP_temperature;BMP_pressure;BME280_temperature;BME280_humidity;BME280_pressure;Samples;Min_cycle;Max_cycle;Signal;HPM_P1;HPM_P2
2023/04/11 00:03:11;;;;;;;;;;;15.70;42.80;;;14.47;46.72;100874.50;12250724;19;19985;-85
2023/04/11 00:07:13;;;;;;;;;;;15.70;42.40;;;14.49;46.83;100867.34;12252745;19;19974;-84
2023/04/11 00:11:15;;;;;;;;;;;15.70;42.50;;;14.31;46.81;100829.22;12253525;19;19958;-85
2023/04/11 00:15:18;;;;;;;;;;;15.60;42.80;;;14.42;46.78;100846.84;12254486;19;19914;-85
2023/04/11 00:19:24;;;;;;;;;;;15.60;42.60;;;14.20;46.70;100808.09;12250411;19;19923;-85
2023/04/11 00:23:26;;;;;;;;;;;15.60;42.90;;;14.33;46.87;100822.06;12251900;19;19943;-84
2023/04/11 00:27:27;;;;;;;;;;;15.60;42.90;;;14.41;46.85;100822.38;12252304;19;19911;-84
2023/04/11 00:31:29;;;;;;;;;;;15.60;42.80;;;14.39;46.74;100822.50;12249851;19;20668;-84
2023/04/11 00:35:33;;;;;;;;;;;15.50;42.80;;;14.34;46.68;100818.50;12248560;19;19927;-84
2023/04/11 00:39:37;;;;;;;;;;;15.50;42.00;;;14.28;46.70;100813.66;12249936;19;19915;-84
2023/04/11 00:43:38;;;;;;;;;;;15.50;42.70;;;14.21;46.74;100796.66;12247376;19;20364;-84
2023/04/11 00:47:40;;;;;;;;;;;15.50;42.90;;;14.28;46.71;100803.16;12250184;19;19938;-85
2023/04/11 00:51:42;;;;;;;;;;;15.50;42.90;;;14.29;46.70;100779.41;12248117;19;20273;-84
2023/04/11 00:55:44;;;;;;;;;;;15.50;42.40;;;14.29;46.75;100781.22;12249901;19;19951;-84
2023/04/11 00:59:47;;;;;;;;;;;15.40;42.70;;;14.21;46.70;100763.34;12246833;19;19927;-84
2023/04/11 01:03:48;;;;;;;;;;;15.40;42.80;;;14.20;46.70;100773.97;12247822;19;20284;-84
2023/04/11 01:07:50;;;;;;;;;;;15.40;42.40;;;14.08;46.69;100752.03;12248880;19;19922;-84
2023/04/11 01:11:52;;;;;;;;;;;15.40;42.30;;;14.14;46.50;100768.19;12246412;19;19919;-85
2023/04/11 01:15:54;;;;;;;;;;;15.30;42.70;;;14.06;46.75;100752.13;12248746;19;19919;-85
2023/04/11 01:19:56;;;;;;;;;;;15.30;43.00;;;14.08;46.53;100749.41;12246885;19;19918;-85
2023/04/11 01:24:02;;;;;;;;;;;15.30;43.00;;;13.77;46.79;100693.78;12243100;19;19919;-85
2023/04/11 01:28:05;;;;;;;;;;;15.30;42.80;;;13.89;46.65;100706.03;12240992;19;19935;-85
2023/04/11 01:32:06;;;;;;;;;;;15.30;43.20;;;14.07;46.61;100731.94;12245864;19;19919;-85
2023/04/11 01:36:08;;;;;;;;;;;15.20;42.40;;;13.98;46.71;100707.19;12245198;19;19922;-84
2023/04/11 01:40:12;;;;;;;;;;;15.20;43.00;;;13.93;46.70;100693.53;12243599;19;20258;-85
2023/04/11 01:44:14;;;;;;;;;;;15.20;42.40;;;13.95;46.59;100675.88;12241718;19;20375;-85
2023/04/11 01:48:16;;;;;;;;;;;15.10;42.80;;;13.72;46.66;100628.47;12258983;19;19919;-85
2023/04/11 01:52:19;;;;;;;;;;;15.20;42.10;;;13.69;46.65;100626.06;12256845;19;19970;-85
2023/04/11 01:56:21;;;;;;;;;;;15.10;42.50;;;13.93;46.74;100659.41;12258035;19;19922;-86
2023/04/11 02:00:23;;;;;;;;;;;15.10;42.80;;;13.88;46.60;100644.00;12256636;19;19915;-85
2023/04/11 02:04:25;;;;;;;;;;;15.10;42.40;;;13.86;46.65;100624.88;12255806;19;19915;-85
2023/04/11 02:08:27;;;;;;;;;;;15.10;42.90;;;13.64;46.59;100591.44;12260749;19;19907;-85
2023/04/11 02:12:30;;;;;;;;;;;15.10;42.10;;;13.72;46.58;100593.53;12257345;19;19923;-84
2023/04/11 02:16:32;;;;;;;;;;;15.10;42.80;;;13.85;46.65;100607.47;12258490;19;19918;-84
2023/04/11 02:20:36;;;;;;;;;;;15.00;43.10;;;13.83;46.66;100601.47;12254623;19;19907;-84
2023/04/11 02:24:38;;;;;;;;;;;15.10;43.00;;;13.67;46.57;100572.84;12252113;19;19933;-84
2023/04/11 02:28:39;;;;;;;;;;;15.00;42.60;;;13.64;46.66;100549.44;12256706;19;19919;-84
2023/04/11 02:32:41;;;;;;;;;;;15.00;42.20;;;13.78;46.68;100582.59;12253804;19;20333;-84
2023/04/11 02:36:44;;;;;;;;;;;15.00;42.60;;;13.61;46.70;100538.31;12254948;19;19923;-84
2023/04/11 02:40:46;;;;;;;;;;;15.00;43.10;;;13.81;46.63;100571.88;12254408;19;20420;-84
2023/04/11 02:44:48;;;;;;;;;;;15.00;42.80;;;13.71;46.70;100542.81;12251767;19;19914;-84
2023/04/11 02:48:50;;;;;;;;;;;15.00;42.70;;;13.81;46.61;100557.91;12253681;19;19995;-84
2023/04/11 02:52:53;;;;;;;;;;;15.00;42.80;;;13.70;46.60;100535.06;12250787;19;20354;-84
2023/04/11 02:56:59;;;;;;;;;;;15.00;42.50;;;13.39;46.50;100497.03;12252990;19;19915;-84
2023/04/11 03:01:02;;;;;;;;;;;15.00;43.10;;;13.73;46.61;100546.16;12250790;19;19919;-84
2023/04/11 03:05:05;;;;;;;;;;;14.90;42.80;;;13.46;46.60;100496.50;12254153;19;19978;-84
2023/04/11 03:09:10;;;;;;;;;;;14.90;43.00;;;13.64;46.63;100525.84;12253362;19;19923;-84
2023/04/11 03:13:12;;;;;;;;;;;14.90;42.30;;;13.69;46.61;100544.72;12250473;19;20344;-84
2023/04/11 03:17:13;;;;;;;;;;;14.90;43.10;;;13.69;46.52;100539.47;12251592;19;19978;-84
2023/04/11 03:21:15;;;;;;;;;;;14.90;42.30;;;13.61;46.59;100528.69;12249743;19;20285;-84
2023/04/11 03:25:20;;;;;;;;;;;14.80;43.00;;;13.26;46.50;100478.72;12252300;19;19922;-84
2023/04/11 03:29:24;;;;;;;;;;;14.90;43.30;;;13.64;46.55;100525.00;12251892;19;19923;-84
2023/04/11 03:33:36;;;;;;;;;;;14.80;43.20;;;13.61;46.62;100538.31;12250369;19;19919;-84
2023/04/11 03:37:38;;;;;;;;;;;14.80;43.20;;;13.26;46.54;100463.81;12253493;19;20238;-84
2023/04/11 03:41:40;;;;;;;;;;;14.80;43.20;;;13.57;46.56;100508.84;12246158;19;19918;-84
2023/04/11 03:45:44;;;;;;;;;;;14.80;43.00;;;13.55;46.64;100515.97;12245239;19;19923;-84
2023/04/11 03:49:53;;;;;;;;;;;14.80;43.20;;;13.31;46.63;100473.97;12250365;19;20342;-84
2023/04/11 03:53:56;;;;;;;;;;;14.70;42.90;;;13.49;46.60;100503.31;12246897;19;19990;-84
2023/04/11 03:58:03;;;;;;;;;;;14.70;42.70;;;13.42;46.63;100478.44;12249224;19;19920;-84
2023/04/11 04:02:06;;;;;;;;;;;14.70;43.20;;;13.46;46.52;100469.44;12245828;19;20300;-84
2023/04/11 04:06:10;;;;;;;;;;;14.70;43.40;;;13.44;46.63;100472.16;12250493;19;19919;-84
2023/04/11 04:10:13;;;;;;;;;;;14.70;43.50;;;13.44;46.61;100477.41;12249450;19;19974;-84
2023/04/11 04:14:17;;;;;;;;;;;14.70;43.50;;;13.46;46.69;100475.50;12246679;19;20276;-84
2023/04/11 04:18:19;;;;;;;;;;;14.70;43.30;;;13.44;46.59;100469.53;12249543;19;20338;-84
2023/04/11 04:22:22;;;;;;;;;;;14.70;43.60;;;13.49;46.59;100485.78;12248581;19;19981;-84
2023/04/11 04:26:30;;;;;;;;;;;14.70;43.60;;;13.49;46.51;100480.53;12249002;19;20335;-84
2023/04/11 04:30:52;;;;;;;;;;;14.70;43.50;;;13.16;46.54;100425.22;12249633;19;19915;-84
2023/04/11 04:34:57;;;;;;;;;;;14.70;43.60;;;13.27;46.58;100444.50;12243653;19;19918;-84
2023/04/11 04:39:16;;;;;;;;;;;14.70;43.60;;;13.50;46.59;100476.13;12248702;19;19914;-84
2023/04/11 04:43:23;;;;;;;;;;;14.60;43.60;;;13.51;46.53;100480.44;12245919;19;20918;-84
2023/04/11 04:48:00;;;;;;;;;;;14.70;43.90;;;13.49;46.59;100469.19;12245650;19;19930;-84
2023/04/11 04:52:01;;;;;;;;;;;14.70;44.00;;;13.49;46.70;100492.81;12246213;19;19915;-84
2023/04/11 04:56:04;;;;;;;;;;;14.70;44.40;;;13.21;46.65;100442.28;12249925;19;19919;-84
2023/04/11 05:00:10;;;;;;;;;;;14.70;44.40;;;13.16;46.68;100436.53;12245680;19;20277;-83
2023/04/11 05:04:14;;;;;;;;;;;14.60;44.50;;;13.18;46.60;100439.91;12244524;19;19915;-83
2023/04/11 05:08:22;;;;;;;;;;;14.60;44.80;;;13.34;46.60;100475.53;12246174;19;19927;-83
2023/04/11 05:12:25;;;;;;;;;;;14.50;44.90;;;13.25;46.69;100467.34;12245772;19;19926;-84
2023/04/11 05:16:31;;;;;;;;;;;14.50;45.00;;;13.23;46.72;100460.53;12247582;19;19933;-84
2023/04/11 05:20:33;;;;;;;;;;;14.40;45.10;;;13.06;46.83;100441.56;12251320;19;19936;-84
2023/04/11 05:24:36;;;;;;;;;;;14.30;45.20;;;13.06;46.68;100466.97;12257580;19;19914;-84
2023/04/11 05:28:42;;;;;;;;;;;14.20;45.40;;;12.65;46.74;100410.41;12261866;19;19915;-83
2023/04/11 05:33:03;;;;;;;;;;;14.20;45.70;;;12.65;46.77;100420.88;12247194;19;19915;-84
2023/04/11 05:37:05;;;;;;;;;;;14.10;46.40;;;12.81;46.74;100466.03;12257173;19;19939;-84
2023/04/11 05:41:08;;;;;;;;;;;14.00;46.60;;;12.73;46.84;100457.03;12250188;19;19926;-84
2023/04/11 05:45:09;;;;;;;;;;;13.90;46.90;;;12.50;47.04;100422.78;12252032;19;20016;-85
2023/04/11 05:49:11;;;;;;;;;;;13.80;46.60;;;12.71;46.96;100451.06;12254255;19;19923;-84
2023/04/11 05:53:12;;;;;;;;;;;13.80;46.50;;;12.64;47.14;100453.25;12249868;19;20280;-84
2023/04/11 05:57:16;;;;;;;;;;;13.80;46.50;;;12.58;47.08;100436.19;12257482;19;19948;-83
2023/04/11 06:01:18;;;;;;;;;;;13.80;46.50;;;12.66;47.13;100437.44;12250787;19;19931;-84
2023/04/11 06:05:20;;;;;;;;;;;13.90;46.70;;;12.67;47.10;100444.38;12253806;19;20306;-83
2023/04/11 06:09:21;;;;;;;;;;;13.70;46.80;;;12.67;47.16;100441.75;12253901;19;19915;-83
2023/04/11 06:13:23;;;;;;;;;;;13.70;47.10;;;12.49;47.22;100425.50;12247290;19;19919;-82
2023/04/11 06:17:25;;;;;;;;;;;13.80;46.70;;;12.66;47.28;100459.22;12254120;19;19922;-83
2023/04/11 06:21:26;;;;;;;;;;;13.80;46.80;;;12.60;47.30;100443.94;12250667;19;19926;-83
2023/04/11 06:25:28;;;;;;;;;;;13.80;47.70;;;12.59;47.40;100450.94;12253471;19;19919;-83
2023/04/11 06:29:29;;;;;;;;;;;13.80;47.10;;;12.58;47.30;100441.44;12253363;19;20283;-83
2023/04/11 06:33:31;;;;;;;;;;;13.70;47.20;;;12.70;47.42;100458.06;12248127;19;19922;-83
2023/04/11 06:37:33;;;;;;;;;;;13.80;47.30;;;12.61;47.43;100441.22;12253633;19;19919;-83
2023/04/11 06:41:35;;;;;;;;;;;13.80;47.70;;;12.40;47.63;100411.25;12250856;19;19921;-83
2023/04/11 06:45:37;;;;;;;;;;;13.80;47.90;;;12.61;47.63;100456.94;12255673;19;19919;-83
2023/04/11 06:49:42;;;;;;;;;;;13.70;47.70;;;12.54;47.64;100433.88;12254611;19;19910;-83
2023/04/11 06:53:44;;;;;;;;;;;13.70;47.60;;;12.71;47.66;100453.66;12250716;19;19914;-84
2023/04/11 06:57:46;;;;;;;;;;;13.80;47.60;;;12.43;47.72;100402.34;12254743;19;19918;-83
2023/04/11 07:01:48;;;;;;;;;;;13.80;48.40;;;12.62;47.69;100431.56;12250336;19;19927;-83
2023/04/11 07:05:50;;;;;;;;;;;13.80;48.10;;;12.62;47.72;100436.81;12252879;19;19922;-84
2023/04/11 07:09:52;;;;;;;;;;;13.90;47.90;;;12.42;47.80;100409.34;12255105;19;19927;-84
2023/04/11 07:13:54;;;;;;;;;;;13.80;47.80;;;12.70;47.88;100460.69;12253686;19;19917;-84
2023/04/11 07:17:56;;;;;;;;;;;13.80;47.70;;;12.66;47.95;100447.91;12257273;19;19918;-84
2023/04/11 07:21:57;;;;;;;;;;;13.80;47.90;;;12.74;47.99;100456.91;12253800;19;20242;-84
2023/04/11 07:25:59;;;;;;;;;;;13.80;47.80;;;12.49;47.88;100409.78;12254904;19;20368;-85
2023/04/11 07:30:04;;;;;;;;;;;13.90;47.80;;;12.70;48.02;100455.47;12256275;19;19986;-84
2023/04/11 07:34:06;;;;;;;;;;;13.90;48.00;;;12.84;48.01;100476.31;12251731;19;19922;-84
2023/04/11 07:38:09;;;;;;;;;;;14.00;48.10;;;12.75;48.09;100449.91;12254975;19;19926;-84
2023/04/11 07:42:10;;;;;;;;;;;13.90;48.10;;;12.78;48.04;100461.00;12248695;19;19915;-84
2023/04/11 07:46:13;;;;;;;;;;;14.00;48.20;;;12.86;48.19;100464.91;12251988;19;20334;-84
2023/04/11 07:50:15;;;;;;;;;;;14.00;48.40;;;12.89;48.17;100459.44;12246030;19;19922;-83
2023/04/11 07:54:16;;;;;;;;;;;14.00;48.50;;;12.68;48.18;100423.28;12247846;19;19919;-83
2023/04/11 07:58:18;;;;;;;;;;;14.10;48.30;;;12.91;48.29;100460.16;12250330;19;19922;-83
2023/04/11 08:02:19;;;;;;;;;;;14.10;48.60;;;12.89;48.29;100462.06;12244570;19;19923;-83
2023/04/11 08:06:21;;;;;;;;;;;14.10;48.40;;;12.98;48.39;100479.75;12248678;19;19919;-83
2023/04/11 08:10:24;;;;;;;;;;;14.10;48.40;;;12.90;48.37;100458.47;12247573;19;19918;-82
2023/04/11 08:14:26;;;;;;;;;;;14.10;48.30;;;13.04;48.27;100480.19;12246369;19;20259;-83
2023/04/11 08:18:28;;;;;;;;;;;14.20;48.30;;;13.03;48.46;100475.03;12246839;19;19915;-84
2023/04/11 08:22:32;;;;;;;;;;;14.20;48.30;;;13.08;48.45;100475.56;12244457;19;19927;-83
2023/04/11 08:26:33;;;;;;;;;;;14.20;48.30;;;13.08;48.41;100470.31;12248033;19;19944;-84
2023/04/11 08:30:39;;;;;;;;;;;14.30;48.30;;;13.09;48.41;100458.03;12243245;19;20278;-84
2023/04/11 08:34:40;;;;;;;;;;;14.30;48.40;;;13.19;48.51;100478.25;12244147;19;20337;-84
2023/04/11 08:38:42;;;;;;;;;;;14.40;48.60;;;12.97;48.50;100449.25;12247749;19;19982;-83
2023/04/11 08:42:44;;;;;;;;;;;14.40;48.40;;;13.13;48.63;100467.38;12243723;19;19933;-83
2023/04/11 08:46:46;;;;;;;;;;;14.40;48.30;;;13.27;48.57;100485.63;12246626;19;19915;-83
2023/04/11 08:50:48;;;;;;;;;;;14.40;48.40;;;13.22;48.70;100470.19;12244340;19;19933;-83
2023/04/11 08:54:53;;;;;;;;;;;14.50;48.40;;;13.20;48.71;100479.09;12240445;19;19922;-83
2023/04/11 08:58:55;;;;;;;;;;;14.50;48.40;;;13.16;48.80;100470.63;12244364;19;19907;-83
2023/04/11 09:03:02;;;;;;;;;;;14.50;48.50;;;13.10;48.68;100463.19;12243158;19;20339;-83
2023/04/11 09:07:04;;;;;;;;;;;14.60;49.20;;;13.09;48.74;100465.91;12246170;19;19923;-83
2023/04/11 09:11:06;;;;;;;;;;;14.50;48.60;;;13.18;48.67;100500.19;12247424;19;20325;-84
2023/04/11 09:15:18;;;;;;;;;;;14.50;48.60;;;13.23;48.89;100507.72;12244162;19;19923;-84
2023/04/11 09:19:24;;;;;;;;;;;14.50;48.50;;;13.17;48.74;100514.22;12245162;19;19923;-84
2023/04/11 09:23:26;;;;;;;;;;;14.40;48.50;;;13.17;48.78;100495.88;12240271;19;19940;-83
2023/04/11 09:27:28;;;;;;;;;;;14.40;48.60;;;12.93;48.84;100458.28;12245968;19;19923;-83
2023/04/11 09:31:41;;;;;;;;;;;14.40;48.50;;;13.32;48.87;100501.06;12244085;19;19911;-84
2023/04/11 09:35:42;;;;;;;;;;;14.40;48.60;;;13.19;48.91;100469.56;12247818;19;19995;-83
2023/04/11 09:39:44;;;;;;;;;;;14.50;48.60;;;13.32;48.94;100499.25;12243787;19;19974;-84
2023/04/11 09:43:51;;;;;;;;;;;14.50;48.60;;;13.37;49.00;100496.31;12240562;19;19935;-83
2023/04/11 09:47:54;;;;;;;;;;;14.60;48.60;;;13.30;49.06;100474.91;12244903;19;19935;-83
2023/04/11 09:51:56;;;;;;;;;;;14.50;48.40;;;13.43;49.07;100498.50;12244874;19;19929;-83
2023/04/11 09:55:58;;;;;;;;;;;14.60;48.70;;;13.26;49.13;100471.69;12242264;19;19922;-83
2023/04/11 10:00:13;;;;;;;;;;;14.60;48.60;;;13.30;49.07;100469.69;12242064;19;19945;-84
2023/04/11 10:04:15;;;;;;;;;;;14.60;48.80;;;13.40;49.10;100483.00;12237423;19;19934;-83
2023/04/11 10:08:26;;;;;;;;;;;14.70;48.60;;;13.32;49.25;100462.53;12251692;19;19910;-83
2023/04/11 10:12:31;;;;;;;;;;;14.70;49.20;;;13.54;49.27;100488.09;12250857;19;19978;-83
2023/04/11 10:16:33;;;;;;;;;;;14.70;48.90;;;13.52;49.26;100484.72;12257744;19;20318;-82
2023/04/11 10:20:34;;;;;;;;;;;14.70;49.50;;;13.64;49.26;100494.34;12253073;19;20038;-83
2023/04/11 10:24:37;;;;;;;;;;;14.80;49.10;;;13.59;49.31;100480.72;12252496;19;19933;-83
2023/04/11 10:28:39;;;;;;;;;;;14.80;49.00;;;13.62;49.37;100477.03;12256157;19;19926;-83
2023/04/11 10:33:04;;;;;;;;;;;14.90;49.00;;;13.83;49.38;100493.03;12251251;19;20665;-83
2023/04/11 10:37:10;;;;;;;;;;;15.00;49.30;;;13.77;49.40;100465.44;12254644;19;19915;-82
2023/04/11 10:41:21;;;;;;;;;;;15.10;49.20;;;14.01;49.47;100482.94;12251903;19;20273;-82
2023/04/11 10:45:28;;;;;;;;;;;15.20;49.80;;;13.94;49.45;100456.34;12253557;19;20279;-82
2023/04/11 10:49:34;;;;;;;;;;;15.20;49.00;;;14.13;49.52;100469.75;12250591;19;19942;-82
2023/04/11 10:53:36;;;;;;;;;;;15.30;48.80;;;14.16;49.63;100469.53;12250827;19;19918;-83
2023/04/11 10:58:12;;;;;;;;;;;15.40;49.20;;;14.37;49.66;100468.88;12253288;19;19949;-83
2023/04/11 11:02:15;;;;;;;;;;;15.50;49.30;;;14.54;49.66;100465.00;12248815;19;19914;-82
2023/04/11 11:06:16;;;;;;;;;;;15.70;49.80;;;14.70;49.55;100459.44;12253032;19;20026;-83
2023/04/11 11:10:45;;;;;;;;;;;15.90;49.30;;;14.76;49.57;100448.44;12254548;19;20358;-82
2023/04/11 11:14:46;;;;;;;;;;;16.10;48.00;;;14.85;49.46;100458.22;12247174;19;19926;-83
2023/04/11 11:18:53;;;;;;;;;;;16.10;48.10;;;14.84;49.54;100456.56;12252084;19;19915;-83
2023/04/11 11:23:03;;;;;;;;;;;16.20;48.10;;;14.74;49.40;100447.72;12249842;19;20337;-83
2023/04/11 11:27:05;;;;;;;;;;;16.20;47.80;;;14.80;49.46;100470.91;12255692;19;19922;-83
2023/04/11 11:31:06;;;;;;;;;;;16.20;47.60;;;14.81;49.30;100485.72;12251065;19;19919;-83
2023/04/11 11:35:12;;;;;;;;;;;16.20;47.40;;;14.60;49.29;100498.69;12253201;19;19915;-82
2023/04/11 11:39:14;;;;;;;;;;;16.10;47.20;;;14.52;49.53;100519.44;12252287;19;19919;-82
2023/04/11 11:43:16;;;;;;;;;;;16.00;47.20;;;14.38;49.37;100515.22;12248118;19;19915;-82
2023/04/11 11:47:17;;;;;;;;;;;15.90;47.40;;;14.36;49.25;100519.75;12252711;19;19922;-82
2023/04/11 11:51:19;;;;;;;;;;;15.80;47.50;;;14.38;49.49;100516.03;12250553;19;19926;-82
2023/04/11 11:55:21;;;;;;;;;;;15.70;47.90;;;14.43;49.39;100517.50;12253476;19;19919;-83
2023/04/11 11:59:26;;;;;;;;;;;15.70;48.10;;;14.43;49.55;100502.56;12250747;19;19943;-83
2023/04/11 12:03:28;;;;;;;;;;;15.60;48.30;;;14.48;49.40;100499.63;12244512;19;19926;-82
2023/04/11 12:07:33;;;;;;;;;;;15.70;48.80;;;14.71;49.54;100503.16;12250522;19;19998;-85
2023/04/11 12:11:38;;;;;;;;;;;15.80;48.90;;;14.72;49.80;100483.81;12247346;19;19947;-83
2023/04/11 12:15:42;;;;;;;;;;;15.90;49.60;;;14.89;49.67;100493.03;12250358;19;19918;-84
2023/04/11 12:19:44;;;;;;;;;;;16.10;49.10;;;14.92;49.50;100490.97;12247419;19;19918;-82
2023/04/11 12:23:45;;;;;;;;;;;16.20;48.90;;;15.09;49.49;100507.25;12248957;19;19922;-82
2023/04/11 12:27:47;;;;;;;;;;;16.30;48.40;;;15.13;49.52;100511.34;12248005;19;19911;-83
2023/04/11 12:31:49;;;;;;;;;;;16.30;48.20;;;14.88;49.42;100473.78;12246686;19;19926;-82
2023/04/11 12:35:51;;;;;;;;;;;16.40;47.80;;;15.14;49.43;100523.50;12249604;19;19918;-83
2023/04/11 12:39:53;;;;;;;;;;;16.40;47.60;;;15.12;49.38;100526.28;12246749;19;20271;-82
2023/04/11 12:43:54;;;;;;;;;;;16.40;47.20;;;15.09;49.49;100526.50;12246387;19;19911;-82
2023/04/11 12:47:56;;;;;;;;;;;16.40;47.30;;;14.87;49.46;100487.03;12246239;19;19923;-83
2023/04/11 12:51:57;;;;;;;;;;;16.40;47.40;;;15.05;49.56;100507.50;12247027;19;19922;-83
2023/04/11 12:55:59;;;;;;;;;;;16.50;47.30;;;15.23;49.46;100544.69;12248133;19;19918;-82
2023/04/11 13:00:11;;;;;;;;;;;16.50;47.20;;;15.10;49.45;100530.81;12245101;19;20632;-82
2023/04/11 13:04:13;;;;;;;;;;;16.50;46.90;;;15.15;49.37;100540.97;12246296;19;19918;-83
2023/04/11 13:08:14;;;;;;;;;;;16.50;46.90;;;15.13;49.28;100543.72;12242621;19;19943;-83
2023/04/11 13:12:16;;;;;;;;;;;16.40;46.20;;;15.03;49.32;100534.84;12243318;19;20320;-82
2023/04/11 13:16:17;;;;;;;;;;;16.40;46.40;;;14.91;49.32;100533.19;12245107;19;19919;-83
2023/04/11 13:20:19;;;;;;;;;;;16.30;46.50;;;15.09;49.27;100565.94;12244745;19;20328;-83
2023/04/11 13:24:20;;;;;;;;;;;16.30;46.80;;;15.00;49.22;100545.63;12244758;19;20377;-83
2023/04/11 13:28:22;;;;;;;;;;;16.30;46.80;;;15.10;49.09;100558.91;12246342;19;19915;-83
2023/04/11 13:32:24;;;;;;;;;;;16.30;46.80;;;14.86;49.36;100553.72;12245589;19;19907;-82
2023/04/11 13:36:28;;;;;;;;;;;16.30;46.70;;;14.86;49.10;100559.81;12245864;19;19931;-83
2023/04/11 13:40:29;;;;;;;;;;;16.30;46.10;;;14.67;49.21;100583.19;12246679;19;19915;-83
2023/04/11 13:44:31;;;;;;;;;;;16.20;46.20;;;14.54;49.15;100617.44;12252201;19;19923;-83
2023/04/11 13:48:34;;;;;;;;;;;16.00;45.80;;;14.30;49.19;100612.97;12257581;19;19911;-82
2023/04/11 13:52:36;;;;;;;;;;;15.90;46.00;;;14.07;49.15;100638.28;12253504;19;20314;-82
2023/04/11 13:56:37;;;;;;;;;;;15.60;46.00;;;14.01;49.19;100659.69;12253712;19;20270;-83
2023/04/11 14:00:39;;;;;;;;;;;15.50;46.20;;;13.81;49.23;100665.53;12253504;19;20034;-83
2023/04/11 14:04:40;;;;;;;;;;;15.30;46.30;;;13.65;49.22;100658.72;12253983;19;19929;-83
2023/04/11 14:08:42;;;;;;;;;;;15.10;46.40;;;13.53;49.18;100671.81;12258269;19;19919;-83
2023/04/11 14:12:43;;;;;;;;;;;14.90;46.40;;;13.40;49.25;100675.31;12252846;19;19930;-83
2023/04/11 14:16:45;;;;;;;;;;;14.80;46.50;;;13.32;49.22;100682.84;12259473;19;19919;-83
2023/04/11 14:20:47;;;;;;;;;;;14.70;46.70;;;13.20;49.28;100705.44;12244998;19;19944;-83
2023/04/11 14:24:49;;;;;;;;;;;14.60;46.90;;;13.16;49.25;100735.44;12253092;19;19940;-83
2023/04/11 14:28:51;;;;;;;;;;;14.40;46.90;;;13.04;49.27;100734.47;12257850;19;19922;-83
2023/04/11 14:32:52;;;;;;;;;;;14.20;47.30;;;12.84;49.27;100720.03;12256951;19;19970;-82
2023/04/11 14:36:54;;;;;;;;;;;14.20;47.30;;;12.59;49.18;100698.97;12259655;19;19926;-83
2023/04/11 14:40:56;;;;;;;;;;;14.10;47.30;;;12.75;49.22;100736.34;12257161;19;20576;-84
2023/04/11 14:44:57;;;;;;;;;;;14.00;47.60;;;12.55;49.06;100734.16;12261937;19;19950;-84
2023/04/11 14:48:59;;;;;;;;;;;13.90;47.60;;;12.47;49.26;100741.66;12258465;19;19934;-84
2023/04/11 14:53:01;;;;;;;;;;;13.70;47.70;;;12.28;49.38;100719.22;12255185;19;19923;-84
2023/04/11 14:57:04;;;;;;;;;;;13.60;47.60;;;12.09;49.29;100689.91;12255314;19;19914;-84
2023/04/11 15:01:06;;;;;;;;;;;13.50;47.50;;;12.26;49.32;100713.28;12253473;19;20587;-84
2023/04/11 15:05:08;;;;;;;;;;;13.40;47.70;;;12.26;49.28;100708.03;12248890;19;19986;-83
2023/04/11 15:09:10;;;;;;;;;;;13.40;47.50;;;12.25;49.24;100703.72;12254841;19;19919;-83
2023/04/11 15:13:11;;;;;;;;;;;13.30;47.60;;;12.29;49.19;100713.06;12248954;19;19914;-84
2023/04/11 15:17:13;;;;;;;;;;;13.30;47.60;;;12.17;49.23;100688.47;12255088;19;19935;-83
2023/04/11 15:21:15;;;;;;;;;;;13.50;47.80;;;12.34;49.40;100708.41;12258004;19;19919;-85
2023/04/11 15:25:18;;;;;;;;;;;13.30;47.70;;;12.39;49.30;100714.19;12249781;19;19931;-84
2023/04/11 15:29:20;;;;;;;;;;;13.40;47.80;;;12.43;49.24;100717.44;12244334;19;19918;-83
2023/04/11 15:33:22;;;;;;;;;;;13.40;47.90;;;12.32;49.25;100688.47;12244488;19;20261;-84
2023/04/11 15:37:25;;;;;;;;;;;13.40;47.80;;;12.40;49.30;100704.53;12251581;19;19935;-84
2023/04/11 15:41:26;;;;;;;;;;;13.40;47.70;;;12.42;49.32;100712.28;12248524;19;19957;-84
2023/04/11 15:45:28;;;;;;;;;;;13.50;47.80;;;12.44;49.27;100710.41;12249595;19;19931;-83
2023/04/11 15:49:29;;;;;;;;;;;13.50;47.90;;;12.41;49.17;100703.59;12250186;19;19931;-83
2023/04/11 15:53:31;;;;;;;;;;;13.50;48.00;;;12.30;49.29;100693.81;12246113;19;20258;-83
2023/04/11 15:57:32;;;;;;;;;;;13.60;48.00;;;12.36;49.35;100698.63;12250617;19;19922;-84
2023/04/11 16:01:35;;;;;;;;;;;13.60;48.10;;;12.52;49.29;100716.84;12247534;19;19915;-83
2023/04/11 16:05:39;;;;;;;;;;;13.60;48.10;;;12.53;49.52;100704.59;12250097;19;19922;-83
2023/04/11 16:09:40;;;;;;;;;;;13.60;48.00;;;12.56;49.40;100709.66;12249740;19;19923;-83
2023/04/11 16:13:43;;;;;;;;;;;13.70;48.10;;;12.31;49.59;100669.31;12244153;19;19919;-83
2023/04/11 16:17:45;;;;;;;;;;;13.80;48.10;;;12.65;49.52;100716.91;12247921;19;19931;-83
2023/04/11 16:21:46;;;;;;;;;;;13.80;48.20;;;12.69;49.70;100715.78;12246960;19;19915;-84
2023/04/11 16:25:48;;;;;;;;;;;13.80;48.20;;;12.72;49.66;100722.59;12248776;19;19995;-83
2023/04/11 16:29:50;;;;;;;;;;;13.90;48.10;;;12.66;49.56;100704.66;12247437;19;19930;-83
2023/04/11 16:33:52;;;;;;;;;;;14.00;48.00;;;12.87;49.44;100749.59;12237516;19;20264;-83
2023/04/11 16:37:53;;;;;;;;;;;13.80;47.80;;;12.77;49.45;100765.94;12248626;19;19979;-84
2023/04/11 16:41:55;;;;;;;;;;;14.00;47.80;;;12.69;49.70;100744.63;12244473;19;20349;-84
2023/04/11 16:45:56;;;;;;;;;;;14.00;47.70;;;12.47;49.56;100711.06;12245135;19;20329;-83
2023/04/11 16:49:58;;;;;;;;;;;14.00;47.60;;;12.61;49.59;100732.00;12245976;19;19966;-84
2023/04/11 16:54:01;;;;;;;;;;;14.00;47.40;;;12.56;49.62;100720.13;12244121;19;19911;-84
2023/04/11 16:58:03;;;;;;;;;;;13.90;47.30;;;12.59;49.55;100727.78;12248743;19;19926;-84
2023/04/11 17:02:04;;;;;;;;;;;13.90;47.30;;;12.58;49.45;100731.34;12241853;19;19923;-84
2023/04/11 17:06:15;;;;;;;;;;;13.80;47.30;;;12.49;49.52;100716.22;12247674;19;19907;-83
2023/04/11 17:10:16;;;;;;;;;;;13.80;47.20;;;12.47;49.31;100728.56;12245662;19;19922;-83
2023/04/11 17:14:18;;;;;;;;;;;13.80;47.20;;;12.37;49.50;100731.75;12243192;19;19926;-83
2023/04/11 17:18:19;;;;;;;;;;;13.70;47.10;;;12.25;49.42;100727.28;12254457;19;20334;-83
2023/04/11 17:22:21;;;;;;;;;;;13.70;47.10;;;12.31;49.54;100755.72;12250696;19;19927;-84
2023/04/11 17:26:22;;;;;;;;;;;13.60;47.10;;;12.22;49.56;100745.81;12255817;19;20333;-82
2023/04/11 17:30:23;;;;;;;;;;;13.60;47.20;;;12.32;49.49;100772.28;12256695;19;19911;-83
2023/04/11 17:34:25;;;;;;;;;;;13.60;47.20;;;12.27;49.44;100776.94;12253028;19;20271;-84
2023/04/11 17:38:27;;;;;;;;;;;13.50;47.20;;;12.18;49.58;100763.47;12259347;19;19927;-82
2023/04/11 17:42:28;;;;;;;;;;;13.50;47.20;;;12.25;49.49;100784.88;12256709;19;19939;-83
2023/04/11 17:46:30;;;;;;;;;;;13.50;47.20;;;12.09;49.46;100757.97;12257683;19;19919;-83
2023/04/11 17:50:32;;;;;;;;;;;13.40;47.20;;;12.15;49.41;100778.53;12257967;19;19918;-83
2023/04/11 17:54:33;;;;;;;;;;;13.40;47.20;;;12.09;49.35;100784.13;12256585;19;19918;-83
2023/04/11 17:58:34;;;;;;;;;;;13.40;47.20;;;11.97;49.52;100774.41;12255298;19;20274;-83
2023/04/11 18:02:36;;;;;;;;;;;13.30;47.20;;;12.00;49.37;100787.31;12253284;19;19926;-83
2023/04/11 18:06:38;;;;;;;;;;;13.30;47.10;;;12.05;49.57;100808.81;12256857;19;19915;-83
2023/04/11 18:10:39;;;;;;;;;;;13.30;47.10;;;11.90;49.44;100803.56;12257010;19;19943;-83
2023/04/11 18:14:41;;;;;;;;;;;13.20;47.10;;;11.95;49.46;100832.91;12253024;19;19915;-83